sensor_id;sensor_type;location;lat;lon;timestamp;pressure;altitude;pressure_sealevel;temperature;humidity
32109;BME280;18624;50.042;8.436;2023-02-13T00:01:52;102639.66;;;6.76;100.00
32109;BME280;18624;50.042;8.436;2023-02-13T00:04:18;102632.28;;;6.76;100.00
32109;BME280;18624;50.042;8.436;2023-02-13T00:06:45;102634.53;;;6.74;100.00
32109;BME280;18624;50.042;8.436;2023-02-13T00:09:13;102628.66;;;6.72;100.00
32109;BME280;18624;50.042;8.436;2023-02-13T00:11:40;102612.19;;;6.69;100.00
32109;BME280;18624;50.042;8.436;2023-02-13T00:14:06;102621.63;;;6.71;100.00
32109;BME280;18624;50.042;8.436;2023-02-13T00:16:33;102628.19;;;6.70;100.00
32109;BME280;18624;50.042;8.436;2023-02-13T00:18:59;102616.88;;;6.68;100.00
32109;BME280;18624;50.042;8.436;2023-02-13T00:21:26;102610.41;;;6.60;100.00
32109;BME280;18624;50.042;8.436;2023-02-13T00:23:52;102618.34;;;6.66;100.00
32109;BME280;18624;50.042;8.436;2023-02-13T00:26:19;102619.13;;;6.66;100.00
32109;BME280;18624;50.042;8.436;2023-02-13T00:28:45;102553.22;;;6.20;100.00
32109;BME280;18624;50.042;8.436;2023-02-13T00:31:14;102607.66;;;6.45;100.00
32109;BME280;18624;50.042;8.436;2023-02-13T00:33:41;102599.38;;;6.41;100.00
32109;BME280;18624;50.042;8.436;2023-02-13T00:36:14;102611.25;;;6.49;100.00
32109;BME280;18624;50.042;8.436;2023-02-13T00:38:42;102615.47;;;6.46;100.00
32109;BME280;18624;50.042;8.436;2023-02-13T00:41:10;102618.63;;;6.48;100.00
32109;BME280;18624;50.042;8.436;2023-02-13T00:43:37;102619.75;;;6.47;100.00
32109;BME280;18624;50.042;8.436;2023-02-13T00:46:04;102612.38;;;6.48;100.00
32109;BME280;18624;50.042;8.436;2023-02-13T00:48:32;102613.53;;;6.47;100.00
32109;BME280;18624;50.042;8.436;2023-02-13T00:50:59;102591.69;;;6.31;100.00
32109;BME280;18624;50.042;8.436;2023-02-13T00:53:29;102606.75;;;6.41;100.00
32109;BME280;18624;50.042;8.436;2023-02-13T00:55:55;102610.25;;;6.41;100.00
32109;BME280;18624;50.042;8.436;2023-02-13T00:58:22;102609.78;;;6.39;100.00
32109;BME280;18624;50.042;8.436;2023-02-13T01:00:51;102603.81;;;6.33;100.00
32109;BME280;18624;50.042;8.436;2023-02-13T01:03:18;102516.09;;;5.75;100.00
32109;BME280;18624;50.042;8.436;2023-02-13T01:05:46;102573.13;;;6.08;100.00
32109;BME280;18624;50.042;8.436;2023-02-13T01:08:14;102608.47;;;6.33;100.00
32109;BME280;18624;50.042;8.436;2023-02-13T01:10:41;102621.66;;;6.31;100.00
32109;BME280;18624;50.042;8.436;2023-02-13T01:13:08;102618.03;;;6.27;100.00
32109;BME280;18624;50.042;8.436;2023-02-13T01:15:35;102621.44;;;6.24;100.00
32109;BME280;18624;50.042;8.436;2023-02-13T01:18:02;102518.41;;;5.61;100.00
32109;BME280;18624;50.042;8.436;2023-02-13T01:20:29;102613.84;;;6.17;100.00
32109;BME280;18624;50.042;8.436;2023-02-13T01:22:56;102623.59;;;6.18;100.00
32109;BME280;18624;50.042;8.436;2023-02-13T01:25:23;102620.53;;;6.20;100.00
32109;BME280;18624;50.042;8.436;2023-02-13T01:27:50;102626.31;;;6.18;100.00
32109;BME280;18624;50.042;8.436;2023-02-13T01:30:17;102621.19;;;6.17;100.00
32109;BME280;18624;50.042;8.436;2023-02-13T01:32:44;102621.91;;;6.14;100.00
32109;BME280;18624;50.042;8.436;2023-02-13T01:35:12;102620.66;;;6.11;100.00
32109;BME280;18624;50.042;8.436;2023-02-13T01:37:40;102557.41;;;5.65;100.00
32109;BME280;18624;50.042;8.436;2023-02-13T01:40:10;102615.69;;;6.01;100.00
32109;BME280;18624;50.042;8.436;2023-02-13T01:42:37;102613.75;;;6.01;100.00
32109;BME280;18624;50.042;8.436;2023-02-13T01:45:27;102599.47;;;5.92;100.00
32109;BME280;18624;50.042;8.436;2023-02-13T01:48:01;102610.91;;;5.98;100.00
32109;BME280;18624;50.042;8.436;2023-02-13T01:50:34;102532.00;;;5.49;100.00
32109;BME280;18624;50.042;8.436;2023-02-13T01:56:02;102610.00;;;5.94;100.00
32109;BME280;18624;50.042;8.436;2023-02-13T01:58:33;102602.41;;;5.87;100.00
32109;BME280;18624;50.042;8.436;2023-02-13T02:01:01;102606.03;;;5.91;100.00
32109;BME280;18624;50.042;8.436;2023-02-13T02:03:33;102592.19;;;5.84;100.00
32109;BME280;18624;50.042;8.436;2023-02-13T02:06:07;102607.28;;;5.81;100.00
32109;BME280;18624;50.042;8.436;2023-02-13T02:08:36;102609.22;;;5.81;100.00
32109;BME280;18624;50.042;8.436;2023-02-13T02:11:11;102607.59;;;5.80;100.00
32109;BME280;18624;50.042;8.436;2023-02-13T02:13:39;102602.50;;;5.78;100.00
32109;BME280;18624;50.042;8.436;2023-02-13T02:16:08;102600.94;;;5.77;100.00
32109;BME280;18624;50.042;8.436;2023-02-13T02:18:34;102593.00;;;5.72;100.00
32109;BME280;18624;50.042;8.436;2023-02-13T02:23:51;102596.84;;;5.71;100.00
32109;BME280;18624;50.042;8.436;2023-02-13T02:40:32;102533.81;;;5.20;100.00
32109;BME280;18624;50.042;8.436;2023-02-13T02:46:15;102594.94;;;5.59;100.00
32109;BME280;18624;50.042;8.436;2023-02-13T02:48:50;102591.88;;;5.61;100.00
32109;BME280;18624;50.042;8.436;2023-02-13T02:51:51;102591.50;;;5.63;100.00
32109;BME280;18624;50.042;8.436;2023-02-13T02:57:23;102588.00;;;5.62;100.00
32109;BME280;18624;50.042;8.436;2023-02-13T02:59:56;102592.53;;;5.58;100.00
32109;BME280;18624;50.042;8.436;2023-02-13T03:02:42;102592.44;;;5.54;100.00
32109;BME280;18624;50.042;8.436;2023-02-13T03:05:29;102582.91;;;5.36;100.00
32109;BME280;18624;50.042;8.436;2023-02-13T03:08:17;102590.25;;;5.36;100.00
32109;BME280;18624;50.042;8.436;2023-02-13T03:11:08;102499.44;;;4.67;100.00
32109;BME280;18624;50.042;8.436;2023-02-13T03:13:54;102598.84;;;5.25;100.00
32109;BME280;18624;50.042;8.436;2023-02-13T03:16:23;102596.84;;;5.22;100.00
32109;BME280;18624;50.042;8.436;2023-02-13T03:19:17;102584.22;;;5.18;100.00
32109;BME280;18624;50.042;8.436;2023-02-13T03:22:16;102597.63;;;5.23;100.00
32109;BME280;18624;50.042;8.436;2023-02-13T03:27:57;102498.59;;;4.54;100.00
32109;BME280;18624;50.042;8.436;2023-02-13T03:30:55;102592.94;;;5.11;100.00
32109;BME280;18624;50.042;8.436;2023-02-13T03:36:36;102590.31;;;5.02;100.00
32109;BME280;18624;50.042;8.436;2023-02-13T03:39:43;102592.59;;;5.00;100.00
32109;BME280;18624;50.042;8.436;2023-02-13T03:42:31;102598.22;;;4.95;100.00
32109;BME280;18624;50.042;8.436;2023-02-13T03:45:02;102599.22;;;4.91;100.00
32109;BME280;18624;50.042;8.436;2023-02-13T03:47:51;102598.78;;;4.89;100.00
32109;BME280;18624;50.042;8.436;2023-02-13T03:50:19;102600.56;;;4.85;100.00
32109;BME280;18624;50.042;8.436;2023-02-13T03:52:51;102601.44;;;4.76;100.00
32109;BME280;18624;50.042;8.436;2023-02-13T03:55:24;102566.59;;;4.45;100.00
32109;BME280;18624;50.042;8.436;2023-02-13T03:58:15;102586.13;;;4.60;100.00
32109;BME280;18624;50.042;8.436;2023-02-13T04:01:05;102597.72;;;4.69;100.00
32109;BME280;18624;50.042;8.436;2023-02-13T04:04:07;102589.75;;;4.64;100.00
32109;BME280;18624;50.042;8.436;2023-02-13T04:06:38;102596.22;;;4.71;100.00
32109;BME280;18624;50.042;8.436;2023-02-13T04:09:08;102600.22;;;4.74;100.00
32109;BME280;18624;50.042;8.436;2023-02-13T04:14:13;102601.53;;;4.68;100.00
32109;BME280;18624;50.042;8.436;2023-02-13T04:16:48;102600.09;;;4.70;100.00
32109;BME280;18624;50.042;8.436;2023-02-13T04:19:15;102543.03;;;4.37;100.00
32109;BME280;18624;50.042;8.436;2023-02-13T04:21:42;102594.31;;;4.72;100.00
32109;BME280;18624;50.042;8.436;2023-02-13T04:24:09;102595.09;;;4.72;100.00
32109;BME280;18624;50.042;8.436;2023-02-13T04:26:37;102599.28;;;4.70;100.00
32109;BME280;18624;50.042;8.436;2023-02-13T04:29:04;102602.00;;;4.70;100.00
32109;BME280;18624;50.042;8.436;2023-02-13T04:31:31;102597.03;;;4.72;100.00
32109;BME280;18624;50.042;8.436;2023-02-13T04:33:57;102594.31;;;4.72;100.00
32109;BME280;18624;50.042;8.436;2023-02-13T04:36:24;102596.72;;;4.73;100.00
32109;BME280;18624;50.042;8.436;2023-02-13T04:38:50;102604.06;;;4.73;100.00
32109;BME280;18624;50.042;8.436;2023-02-13T04:41:17;102597.81;;;4.72;100.00
32109;BME280;18624;50.042;8.436;2023-02-13T04:43:44;102595.91;;;4.73;100.00
32109;BME280;18624;50.042;8.436;2023-02-13T04:46:10;102588.41;;;4.70;100.00
32109;BME280;18624;50.042;8.436;2023-02-13T04:48:37;102602.66;;;4.67;100.00
32109;BME280;18624;50.042;8.436;2023-02-13T04:51:04;102588.16;;;4.63;100.00
32109;BME280;18624;50.042;8.436;2023-02-13T04:53:30;102589.44;;;4.65;100.00
32109;BME280;18624;50.042;8.436;2023-02-13T04:55:57;102588.63;;;4.65;100.00
32109;BME280;18624;50.042;8.436;2023-02-13T04:58:23;102588.16;;;4.63;100.00
32109;BME280;18624;50.042;8.436;2023-02-13T05:00:50;102585.00;;;4.61;100.00
32109;BME280;18624;50.042;8.436;2023-02-13T05:03:16;102587.91;;;4.55;100.00
32109;BME280;18624;50.042;8.436;2023-02-13T05:05:43;102583.94;;;4.53;100.00
32109;BME280;18624;50.042;8.436;2023-02-13T05:08:09;102592.44;;;4.51;100.00
32109;BME280;18624;50.042;8.436;2023-02-13T05:10:36;102592.75;;;4.50;100.00
32109;BME280;18624;50.042;8.436;2023-02-13T05:13:02;102456.16;;;3.62;100.00
32109;BME280;18624;50.042;8.436;2023-02-13T05:15:29;102576.06;;;4.39;100.00
32109;BME280;18624;50.042;8.436;2023-02-13T05:17:55;102587.66;;;4.48;100.00
32109;BME280;18624;50.042;8.436;2023-02-13T05:20:22;102583.00;;;4.49;100.00
32109;BME280;18624;50.042;8.436;2023-02-13T05:22:52;102529.34;;;4.13;100.00
32109;BME280;18624;50.042;8.436;2023-02-13T05:25:39;102594.78;;;4.53;100.00
32109;BME280;18624;50.042;8.436;2023-02-13T05:28:07;102602.59;;;4.54;100.00
32109;BME280;18624;50.042;8.436;2023-02-13T05:30:54;102589.16;;;4.58;100.00
32109;BME280;18624;50.042;8.436;2023-02-13T05:33:20;102590.75;;;4.59;100.00
32109;BME280;18624;50.042;8.436;2023-02-13T05:35:47;102593.44;;;4.59;100.00
32109;BME280;18624;50.042;8.436;2023-02-13T05:38:14;102590.75;;;4.59;100.00
32109;BME280;18624;50.042;8.436;2023-02-13T05:40:40;102592.00;;;4.62;100.00
32109;BME280;18624;50.042;8.436;2023-02-13T05:43:06;102599.03;;;4.63;100.00
32109;BME280;18624;50.042;8.436;2023-02-13T05:45:33;102599.50;;;4.65;100.00
32109;BME280;18624;50.042;8.436;2023-02-13T05:47:59;102531.19;;;4.21;100.00
32109;BME280;18624;50.042;8.436;2023-02-13T05:50:26;102602.78;;;4.70;100.00
32109;BME280;18624;50.042;8.436;2023-02-13T05:52:54;102562.63;;;4.43;100.00
32109;BME280;18624;50.042;8.436;2023-02-13T05:55:20;102596.78;;;4.65;100.00
32109;BME280;18624;50.042;8.436;2023-02-13T05:57:46;102602.22;;;4.65;100.00
32109;BME280;18624;50.042;8.436;2023-02-13T06:00:13;102603.00;;;4.65;100.00
32109;BME280;18624;50.042;8.436;2023-02-13T06:02:40;102615.31;;;4.63;100.00
32109;BME280;18624;50.042;8.436;2023-02-13T06:05:06;102607.16;;;4.63;100.00
32109;BME280;18624;50.042;8.436;2023-02-13T06:07:33;102606.38;;;4.62;100.00
32109;BME280;18624;50.042;8.436;2023-02-13T06:09:59;102519.94;;;4.10;100.00
32109;BME280;18624;50.042;8.436;2023-02-13T06:12:26;102604.66;;;4.57;100.00
32109;BME280;18624;50.042;8.436;2023-02-13T06:14:52;102598.44;;;4.57;100.00
32109;BME280;18624;50.042;8.436;2023-02-13T06:17:18;102603.88;;;4.57;100.00
32109;BME280;18624;50.042;8.436;2023-02-13T06:19:45;102599.72;;;4.60;100.00
32109;BME280;18624;50.042;8.436;2023-02-13T06:22:11;102600.72;;;4.55;100.00
32109;BME280;18624;50.042;8.436;2023-02-13T06:24:37;102604.22;;;4.55;100.00
32109;BME280;18624;50.042;8.436;2023-02-13T06:27:04;102595.44;;;4.50;100.00
32109;BME280;18624;50.042;8.436;2023-02-13T06:29:30;102600.09;;;4.49;100.00
32109;BME280;18624;50.042;8.436;2023-02-13T06:31:58;102606.00;;;4.51;100.00
32109;BME280;18624;50.042;8.436;2023-02-13T06:34:24;102599.78;;;4.51;100.00
32109;BME280;18624;50.042;8.436;2023-02-13T06:36:51;102601.72;;;4.50;100.00
32109;BME280;18624;50.042;8.436;2023-02-13T06:39:18;102604.44;;;4.50;100.00
32109;BME280;18624;50.042;8.436;2023-02-13T06:41:44;102598.06;;;4.46;100.00
32109;BME280;18624;50.042;8.436;2023-02-13T06:44:11;102607.78;;;4.47;100.00
32109;BME280;18624;50.042;8.436;2023-02-13T06:46:37;102601.78;;;4.42;100.00
32109;BME280;18624;50.042;8.436;2023-02-13T06:49:03;102597.94;;;4.43;100.00
32109;BME280;18624;50.042;8.436;2023-02-13T06:51:30;102601.09;;;4.45;100.00
32109;BME280;18624;50.042;8.436;2023-02-13T06:53:56;102608.31;;;4.41;100.00
32109;BME280;18624;50.042;8.436;2023-02-13T06:56:23;102599.50;;;4.44;100.00
32109;BME280;18624;50.042;8.436;2023-02-13T06:58:51;102609.25;;;4.45;100.00
32109;BME280;18624;50.042;8.436;2023-02-13T07:01:17;102612.44;;;4.47;100.00
32109;BME280;18624;50.042;8.436;2023-02-13T07:03:44;102617.38;;;4.45;100.00
32109;BME280;18624;50.042;8.436;2023-02-13T07:06:19;102546.03;;;4.02;100.00
32109;BME280;18624;50.042;8.436;2023-02-13T07:08:46;102601.16;;;4.36;100.00
32109;BME280;18624;50.042;8.436;2023-02-13T07:11:17;102615.75;;;4.52;100.00
32109;BME280;18624;50.042;8.436;2023-02-13T07:13:43;102614.94;;;4.52;100.00
32109;BME280;18624;50.042;8.436;2023-02-13T07:16:10;102533.25;;;4.03;100.00
32109;BME280;18624;50.042;8.436;2023-02-13T07:18:36;102615.75;;;4.52;100.00
32109;BME280;18624;50.042;8.436;2023-02-13T07:21:04;102609.25;;;4.45;100.00
32109;BME280;18624;50.042;8.436;2023-02-13T07:23:30;102623.53;;;4.54;100.00
32109;BME280;18624;50.042;8.436;2023-02-13T07:26:00;102628.47;;;4.61;100.00
32109;BME280;18624;50.042;8.436;2023-02-13T07:28:27;102625.88;;;4.64;100.00
32109;BME280;18624;50.042;8.436;2023-02-13T07:30:54;102621.69;;;4.67;100.00
32109;BME280;18624;50.042;8.436;2023-02-13T07:33:22;102618.63;;;4.68;100.00
32109;BME280;18624;50.042;8.436;2023-02-13T07:35:50;102618.44;;;4.73;100.00
32109;BME280;18624;50.042;8.436;2023-02-13T07:38:17;102623.53;;;4.75;100.00
32109;BME280;18624;50.042;8.436;2023-02-13T07:40:44;102619.69;;;4.76;100.00
32109;BME280;18624;50.042;8.436;2023-02-13T07:43:11;102625.81;;;4.85;100.00
32109;BME280;18624;50.042;8.436;2023-02-13T07:45:38;102627.22;;;4.91;100.00
32109;BME280;18624;50.042;8.436;2023-02-13T07:48:04;102630.53;;;4.97;100.00
32109;BME280;18624;50.042;8.436;2023-02-13T07:50:31;102625.22;;;5.00;100.00
32109;BME280;18624;50.042;8.436;2023-02-13T07:52:59;102618.78;;;5.05;100.00
32109;BME280;18624;50.042;8.436;2023-02-13T07:55:28;102625.56;;;5.11;100.00
32109;BME280;18624;50.042;8.436;2023-02-13T07:57:55;102630.78;;;5.16;100.00
32109;BME280;18624;50.042;8.436;2023-02-13T08:00:22;102630.56;;;5.21;100.00
32109;BME280;18624;50.042;8.436;2023-02-13T08:02:48;102616.28;;;5.12;100.00
32109;BME280;18624;50.042;8.436;2023-02-13T08:05:15;102630.25;;;5.23;100.00
32109;BME280;18624;50.042;8.436;2023-02-13T08:07:41;102639.78;;;5.29;100.00
32109;BME280;18624;50.042;8.436;2023-02-13T08:10:10;102630.25;;;5.35;100.00
32109;BME280;18624;50.042;8.436;2023-02-13T08:12:56;102639.81;;;5.41;100.00
32109;BME280;18624;50.042;8.436;2023-02-13T08:15:22;102629.38;;;5.43;100.00
32109;BME280;18624;50.042;8.436;2023-02-13T08:17:49;102632.56;;;5.45;100.00
32109;BME280;18624;50.042;8.436;2023-02-13T08:20:15;102630.75;;;5.49;100.00
32109;BME280;18624;50.042;8.436;2023-02-13T08:22:42;102637.91;;;5.54;100.00
32109;BME280;18624;50.042;8.436;2023-02-13T08:25:08;102632.53;;;5.57;100.00
32109;BME280;18624;50.042;8.436;2023-02-13T08:27:35;102638.78;;;5.58;100.00
32109;BME280;18624;50.042;8.436;2023-02-13T08:30:02;102628.81;;;5.50;100.00
32109;BME280;18624;50.042;8.436;2023-02-13T08:32:29;102635.38;;;5.61;100.00
32109;BME280;18624;50.042;8.436;2023-02-13T08:35:00;102624.38;;;5.57;100.00
32109;BME280;18624;50.042;8.436;2023-02-13T08:37:27;102635.75;;;5.59;100.00
32109;BME280;18624;50.042;8.436;2023-02-13T08:39:53;102633.59;;;5.65;100.00
32109;BME280;18624;50.042;8.436;2023-02-13T08:42:19;102635.28;;;5.70;100.00
32109;BME280;18624;50.042;8.436;2023-02-13T08:44:46;102642.06;;;5.76;100.00
32109;BME280;18624;50.042;8.436;2023-02-13T08:47:13;102639.94;;;5.81;100.00
32109;BME280;18624;50.042;8.436;2023-02-13T08:49:39;102649.47;;;5.88;100.00
32109;BME280;18624;50.042;8.436;2023-02-13T08:52:05;102644.00;;;5.88;100.00
32109;BME280;18624;50.042;8.436;2023-02-13T08:54:35;102654.81;;;5.96;100.00
32109;BME280;18624;50.042;8.436;2023-02-13T08:57:02;102561.84;;;5.45;100.00
32109;BME280;18624;50.042;8.436;2023-02-13T08:59:28;102643.22;;;6.12;100.00
32109;BME280;18624;50.042;8.436;2023-02-13T09:01:56;102642.97;;;6.17;100.00
32109;BME280;18624;50.042;8.436;2023-02-13T09:04:22;102645.50;;;6.22;100.00
32109;BME280;18624;50.042;8.436;2023-02-13T09:06:49;102641.94;;;6.21;100.00
32109;BME280;18624;50.042;8.436;2023-02-13T09:09:15;102655.69;;;6.25;100.00
32109;BME280;18624;50.042;8.436;2023-02-13T09:11:42;102646.72;;;6.24;100.00
32109;BME280;18624;50.042;8.436;2023-02-13T09:14:08;102645.81;;;6.20;100.00
32109;BME280;18624;50.042;8.436;2023-02-13T09:16:35;102644.91;;;6.16;100.00
32109;BME280;18624;50.042;8.436;2023-02-13T09:19:01;102644.59;;;6.18;100.00
32109;BME280;18624;50.042;8.436;2023-02-13T09:21:29;102640.72;;;6.19;100.00
32109;BME280;18624;50.042;8.436;2023-02-13T09:23:56;102639.16;;;6.18;100.00
32109;BME280;18624;50.042;8.436;2023-02-13T09:26:22;102627.25;;;6.10;100.00
32109;BME280;18624;50.042;8.436;2023-02-13T09:28:49;102640.94;;;6.26;100.00
32109;BME280;18624;50.042;8.436;2023-02-13T09:31:18;102645.25;;;6.27;100.00
32109;BME280;18624;50.042;8.436;2023-02-13T09:33:47;102631.06;;;6.21;100.00
32109;BME280;18624;50.042;8.436;2023-02-13T09:36:16;102642.41;;;6.23;100.00
32109;BME280;18624;50.042;8.436;2023-02-13T09:38:54;102651.13;;;6.29;100.00
32109;BME280;18624;50.042;8.436;2023-02-13T09:41:27;102629.03;;;6.18;100.00
32109;BME280;18624;50.042;8.436;2023-02-13T09:43:58;102644.22;;;6.31;100.00
32109;BME280;18624;50.042;8.436;2023-02-13T09:46:32;102647.50;;;6.37;100.00
32109;BME280;18624;50.042;8.436;2023-02-13T09:49:11;102568.94;;;5.87;100.00
32109;BME280;18624;50.042;8.436;2023-02-13T09:51:40;102648.75;;;6.40;100.00
32109;BME280;18624;50.042;8.436;2023-02-13T09:54:13;102648.75;;;6.40;100.00
32109;BME280;18624;50.042;8.436;2023-02-13T09:56:49;102642.16;;;6.41;100.00
32109;BME280;18624;50.042;8.436;2023-02-13T10:02:01;102648.16;;;6.46;100.00
32109;BME280;18624;50.042;8.436;2023-02-13T10:07:53;102653.34;;;6.51;100.00
32109;BME280;18624;50.042;8.436;2023-02-13T10:10:18;102649.16;;;6.54;100.00
32109;BME280;18624;50.042;8.436;2023-02-13T10:13:10;102650.97;;;6.62;100.00
32109;BME280;18624;50.042;8.436;2023-02-13T10:15:53;102652.66;;;6.67;100.00
32109;BME280;18624;50.042;8.436;2023-02-13T10:18:37;102635.66;;;6.57;100.00
32109;BME280;18624;50.042;8.436;2023-02-13T10:21:07;102642.78;;;6.62;100.00
32109;BME280;18624;50.042;8.436;2023-02-13T10:23:40;102646.72;;;6.65;100.00
32109;BME280;18624;50.042;8.436;2023-02-13T10:26:17;102645.25;;;6.67;100.00
32109;BME280;18624;50.042;8.436;2023-02-13T10:28:58;102604.22;;;6.48;100.00
32109;BME280;18624;50.042;8.436;2023-02-13T10:31:47;102643.88;;;6.73;100.00
32109;BME280;18624;50.042;8.436;2023-02-13T10:34:16;102644.66;;;6.74;100.00
32109;BME280;18624;50.042;8.436;2023-02-13T10:36:44;102645.44;;;6.74;100.00
32109;BME280;18624;50.042;8.436;2023-02-13T10:39:24;102639.31;;;6.77;100.00
32109;BME280;18624;50.042;8.436;2023-02-13T10:42:19;102637.13;;;6.83;100.00
32109;BME280;18624;50.042;8.436;2023-02-13T10:50:40;102629.31;;;6.97;100.00
32109;BME280;18624;50.042;8.436;2023-02-13T11:04:19;102616.88;;;7.12;100.00
32109;BME280;18624;50.042;8.436;2023-02-13T11:06:56;102615.81;;;7.17;100.00
32109;BME280;18624;50.042;8.436;2023-02-13T11:09:24;102603.50;;;7.23;100.00
32109;BME280;18624;50.042;8.436;2023-02-13T11:11:52;102614.16;;;7.28;100.00
32109;BME280;18624;50.042;8.436;2023-02-13T11:14:25;102600.88;;;7.26;100.00
32109;BME280;18624;50.042;8.436;2023-02-13T11:16:57;102595.84;;;7.28;100.00
32109;BME280;18624;50.042;8.436;2023-02-13T11:19:31;102603.53;;;7.39;100.00
32109;BME280;18624;50.042;8.436;2023-02-13T11:22:10;102600.25;;;7.49;100.00
32109;BME280;18624;50.042;8.436;2023-02-13T11:24:50;102589.66;;;7.47;100.00
32109;BME280;18624;50.042;8.436;2023-02-13T11:27:23;102607.66;;;7.48;100.00
32109;BME280;18624;50.042;8.436;2023-02-13T11:29:54;102596.75;;;7.48;100.00
32109;BME280;18624;50.042;8.436;2023-02-13T11:32:24;102601.03;;;7.49;100.00
32109;BME280;18624;50.042;8.436;2023-02-13T11:34:51;102589.59;;;7.59;100.00
32109;BME280;18624;50.042;8.436;2023-02-13T11:39:51;102598.88;;;7.74;99.59
32109;BME280;18624;50.042;8.436;2023-02-13T11:42:23;102509.19;;;7.22;96.75
32109;BME280;18624;50.042;8.436;2023-02-13T11:44:57;102588.78;;;7.75;98.86
32109;BME280;18624;50.042;8.436;2023-02-13T11:47:35;102584.91;;;7.76;97.83
32109;BME280;18624;50.042;8.436;2023-02-13T11:50:02;102590.50;;;7.83;96.08
32109;BME280;18624;50.042;8.436;2023-02-13T11:52:34;102585.13;;;7.86;95.19
32109;BME280;18624;50.042;8.436;2023-02-13T11:55:24;102573.94;;;7.92;96.25
32109;BME280;18624;50.042;8.436;2023-02-13T11:57:57;102572.44;;;7.94;92.94
32109;BME280;18624;50.042;8.436;2023-02-13T12:00:38;102571.44;;;8.02;92.75
32109;BME280;18624;50.042;8.436;2023-02-13T12:03:28;102576.47;;;8.00;92.15
32109;BME280;18624;50.042;8.436;2023-02-13T12:06:00;102566.53;;;7.92;93.01
32109;BME280;18624;50.042;8.436;2023-02-13T12:08:29;102578.91;;;8.05;92.68
32109;BME280;18624;50.042;8.436;2023-02-13T12:10:58;102433.16;;;7.20;93.81
32109;BME280;18624;50.042;8.436;2023-02-13T12:13:32;102539.16;;;7.89;92.57
32109;BME280;18624;50.042;8.436;2023-02-13T12:16:09;102565.56;;;8.20;89.04
32109;BME280;18624;50.042;8.436;2023-02-13T12:18:39;102561.81;;;8.28;88.91
32109;BME280;18624;50.042;8.436;2023-02-13T12:21:27;102556.81;;;8.30;91.02
32109;BME280;18624;50.042;8.436;2023-02-13T12:24:23;102560.31;;;8.30;91.98
32109;BME280;18624;50.042;8.436;2023-02-13T12:27:04;102557.66;;;8.34;89.60
32109;BME280;18624;50.042;8.436;2023-02-13T12:32:26;102478.88;;;7.97;89.65
32109;BME280;18624;50.042;8.436;2023-02-13T12:37:56;102543.59;;;8.51;87.82
32109;BME280;18624;50.042;8.436;2023-02-13T12:46:20;102537.59;;;8.65;87.24
32109;BME280;18624;50.042;8.436;2023-02-13T12:52:10;102532.91;;;8.66;87.25
32109;BME280;18624;50.042;8.436;2023-02-13T12:54:54;102522.41;;;8.68;87.41
32109;BME280;18624;50.042;8.436;2023-02-13T12:57:42;102505.59;;;8.66;86.11
32109;BME280;18624;50.042;8.436;2023-02-13T13:09:20;102514.28;;;8.94;84.60
32109;BME280;18624;50.042;8.436;2023-02-13T13:22:46;102512.06;;;9.03;83.87
32109;BME280;18624;50.042;8.436;2023-02-13T13:27:52;102504.06;;;9.14;82.04
32109;BME280;18624;50.042;8.436;2023-02-13T13:30:27;102502.59;;;9.20;81.51
32109;BME280;18624;50.042;8.436;2023-02-13T13:32:59;102496.31;;;9.20;80.31
32109;BME280;18624;50.042;8.436;2023-02-13T13:35:28;102495.28;;;9.28;80.75
32109;BME280;18624;50.042;8.436;2023-02-13T13:38:19;102488.59;;;9.25;80.46
32109;BME280;18624;50.042;8.436;2023-02-13T13:41:11;102486.69;;;9.29;80.53
32109;BME280;18624;50.042;8.436;2023-02-13T13:48:57;102473.91;;;9.37;78.73
32109;BME280;18624;50.042;8.436;2023-02-13T13:51:31;102455.81;;;9.29;78.87
32109;BME280;18624;50.042;8.436;2023-02-13T14:05:01;102471.44;;;9.58;76.77
32109;BME280;18624;50.042;8.436;2023-02-13T14:07:34;102462.88;;;9.60;75.24
32109;BME280;18624;50.042;8.436;2023-02-13T14:10:01;102461.06;;;9.71;75.35
32109;BME280;18624;50.042;8.436;2023-02-13T14:14:58;102395.22;;;9.30;74.34
32109;BME280;18624;50.042;8.436;2023-02-13T14:22:50;102448.31;;;9.86;74.18
32109;BME280;18624;50.042;8.436;2023-02-13T14:25:23;102438.81;;;9.73;75.03
32109;BME280;18624;50.042;8.436;2023-02-13T14:28:20;102443.50;;;9.76;74.64
32109;BME280;18624;50.042;8.436;2023-02-13T14:30:48;102453.00;;;9.82;71.85
32109;BME280;18624;50.042;8.436;2023-02-13T14:33:25;102450.72;;;9.87;71.58
32109;BME280;18624;50.042;8.436;2023-02-13T14:36:03;102448.75;;;9.88;71.24
32109;BME280;18624;50.042;8.436;2023-02-13T14:38:31;102418.81;;;9.72;69.38
32109;BME280;18624;50.042;8.436;2023-02-13T14:40:59;102447.31;;;9.98;68.72
32109;BME280;18624;50.042;8.436;2023-02-13T14:43:33;102445.72;;;9.97;68.34
32109;BME280;18624;50.042;8.436;2023-02-13T14:46:23;102436.31;;;9.94;69.18
32109;BME280;18624;50.042;8.436;2023-02-13T14:48:59;102438.63;;;9.92;68.20
32109;BME280;18624;50.042;8.436;2023-02-13T14:56:32;102380.59;;;9.46;69.54
32109;BME280;18624;50.042;8.436;2023-02-13T14:59:11;102430.31;;;9.85;68.48
32109;BME280;18624;50.042;8.436;2023-02-13T15:01:56;102422.09;;;9.85;68.39
32109;BME280;18624;50.042;8.436;2023-02-13T15:04:42;102438.19;;;9.90;68.49
32109;BME280;18624;50.042;8.436;2023-02-13T15:07:16;102424.56;;;9.94;68.45
32109;BME280;18624;50.042;8.436;2023-02-13T15:10:58;102430.47;;;9.96;68.13
32109;BME280;18624;50.042;8.436;2023-02-13T15:13:00;102430.06;;;9.97;67.10
32109;BME280;18624;50.042;8.436;2023-02-13T15:15:33;102433.22;;;9.99;67.08
32109;BME280;18624;50.042;8.436;2023-02-13T15:18:03;102432.91;;;10.04;66.42
32109;BME280;18624;50.042;8.436;2023-02-13T15:20:35;102418.34;;;9.97;66.36
32109;BME280;18624;50.042;8.436;2023-02-13T15:23:04;102422.69;;;10.01;65.83